sensor_id;sensor_type;location;lat;lon;timestamp;P1;durP1;ratioP1;P2;durP2;ratioP2
37641;SDS011;23486;51.956;5.888;2022-12-29T00:02:15;4.53;;;1.83;;
37641;SDS011;23486;51.956;5.888;2022-12-29T00:04:44;4.63;;;1.50;;
37641;SDS011;23486;51.956;5.888;2022-12-29T00:07:09;3.60;;;1.30;;
37641;SDS011;23486;51.956;5.888;2022-12-29T00:09:38;3.08;;;1.52;;
37641;SDS011;23486;51.956;5.888;2022-12-29T00:12:04;4.43;;;1.55;;
37641;SDS011;23486;51.956;5.888;2022-12-29T00:14:30;4.07;;;2.10;;
37641;SDS011;23486;51.956;5.888;2022-12-29T00:19:39;3.97;;;1.88;;
37641;SDS011;23486;51.956;5.888;2022-12-29T00:22:23;5.35;;;1.60;;
37641;SDS011;23486;51.956;5.888;2022-12-29T00:25:09;3.58;;;1.75;;
37641;SDS011;23486;51.956;5.888;2022-12-29T00:27:57;3.45;;;1.50;;
37641;SDS011;23486;51.956;5.888;2022-12-29T00:30:42;4.30;;;1.85;;
37641;SDS011;23486;51.956;5.888;2022-12-29T00:33:28;4.75;;;1.85;;
37641;SDS011;23486;51.956;5.888;2022-12-29T00:36:18;5.45;;;1.85;;
37641;SDS011;23486;51.956;5.888;2022-12-29T00:38:51;3.35;;;1.85;;
37641;SDS011;23486;51.956;5.888;2022-12-29T00:41:40;3.20;;;1.27;;
37641;SDS011;23486;51.956;5.888;2022-12-29T00:44:24;3.80;;;1.52;;
37641;SDS011;23486;51.956;5.888;2022-12-29T00:46:49;3.88;;;1.77;;
37641;SDS011;23486;51.956;5.888;2022-12-29T00:49:15;3.85;;;1.60;;
37641;SDS011;23486;51.956;5.888;2022-12-29T00:52:05;4.22;;;1.35;;
37641;SDS011;23486;51.956;5.888;2022-12-29T00:54:41;4.05;;;1.40;;
37641;SDS011;23486;51.956;5.888;2022-12-29T00:57:09;3.38;;;1.50;;
37641;SDS011;23486;51.956;5.888;2022-12-29T00:59:35;3.95;;;1.70;;
37641;SDS011;23486;51.956;5.888;2022-12-29T01:02:02;2.60;;;1.02;;
37641;SDS011;23486;51.956;5.888;2022-12-29T01:04:30;3.85;;;1.35;;
37641;SDS011;23486;51.956;5.888;2022-12-29T01:06:56;2.90;;;0.90;;
37641;SDS011;23486;51.956;5.888;2022-12-29T01:09:22;2.80;;;1.05;;
37641;SDS011;23486;51.956;5.888;2022-12-29T01:12:07;2.97;;;1.15;;
37641;SDS011;23486;51.956;5.888;2022-12-29T01:14:34;3.85;;;0.80;;
37641;SDS011;23486;51.956;5.888;2022-12-29T01:17:00;1.65;;;0.50;;
37641;SDS011;23486;51.956;5.888;2022-12-29T01:19:25;2.83;;;0.60;;
37641;SDS011;23486;51.956;5.888;2022-12-29T01:21:51;2.92;;;0.40;;
37641;SDS011;23486;51.956;5.888;2022-12-29T01:24:17;2.15;;;0.43;;
37641;SDS011;23486;51.956;5.888;2022-12-29T01:26:44;2.10;;;0.60;;
37641;SDS011;23486;51.956;5.888;2022-12-29T01:29:10;1.63;;;0.45;;
37641;SDS011;23486;51.956;5.888;2022-12-29T01:31:35;2.33;;;0.40;;
37641;SDS011;23486;51.956;5.888;2022-12-29T01:34:01;1.02;;;0.30;;
37641;SDS011;23486;51.956;5.888;2022-12-29T01:36:28;1.15;;;0.40;;
37641;SDS011;23486;51.956;5.888;2022-12-29T01:38:53;2.10;;;0.40;;
37641;SDS011;23486;51.956;5.888;2022-12-29T01:41:19;1.90;;;0.63;;
37641;SDS011;23486;51.956;5.888;2022-12-29T01:46:32;3.10;;;0.40;;
37641;SDS011;23486;51.956;5.888;2022-12-29T01:49:20;1.38;;;0.45;;
37641;SDS011;23486;51.956;5.888;2022-12-29T01:51:53;1.45;;;0.40;;
37641;SDS011;23486;51.956;5.888;2022-12-29T01:54:32;1.20;;;0.43;;
37641;SDS011;23486;51.956;5.888;2022-12-29T01:57:08;1.60;;;0.50;;
37641;SDS011;23486;51.956;5.888;2022-12-29T01:59:39;1.95;;;0.60;;
37641;SDS011;23486;51.956;5.888;2022-12-29T02:02:10;3.17;;;0.60;;
37641;SDS011;23486;51.956;5.888;2022-12-29T02:04:36;3.70;;;0.60;;
37641;SDS011;23486;51.956;5.888;2022-12-29T02:07:10;3.35;;;0.80;;
37641;SDS011;23486;51.956;5.888;2022-12-29T02:09:40;2.13;;;0.85;;
37641;SDS011;23486;51.956;5.888;2022-12-29T02:12:07;3.05;;;0.82;;
37641;SDS011;23486;51.956;5.888;2022-12-29T02:14:32;2.88;;;0.70;;
37641;SDS011;23486;51.956;5.888;2022-12-29T02:17:05;2.65;;;0.70;;
37641;SDS011;23486;51.956;5.888;2022-12-29T02:28:06;3.35;;;0.80;;
37641;SDS011;23486;51.956;5.888;2022-12-29T02:30:51;1.98;;;0.60;;
37641;SDS011;23486;51.956;5.888;2022-12-29T02:35:56;2.88;;;0.50;;
37641;SDS011;23486;51.956;5.888;2022-12-29T02:49:15;2.13;;;0.40;;
37641;SDS011;23486;51.956;5.888;2022-12-29T02:51:53;2.58;;;0.30;;
37641;SDS011;23486;51.956;5.888;2022-12-29T02:54:30;2.42;;;0.55;;
37641;SDS011;23486;51.956;5.888;2022-12-29T02:59:46;2.20;;;0.45;;
37641;SDS011;23486;51.956;5.888;2022-12-29T03:08:02;2.60;;;0.20;;
37641;SDS011;23486;51.956;5.888;2022-12-29T03:13:42;1.90;;;0.30;;
37641;SDS011;23486;51.956;5.888;2022-12-29T03:19:06;1.83;;;0.20;;
37641;SDS011;23486;51.956;5.888;2022-12-29T03:21:43;3.10;;;0.20;;
37641;SDS011;23486;51.956;5.888;2022-12-29T03:24:36;2.95;;;0.20;;
37641;SDS011;23486;51.956;5.888;2022-12-29T03:27:05;1.10;;;0.28;;
37641;SDS011;23486;51.956;5.888;2022-12-29T03:29:35;0.90;;;0.20;;
37641;SDS011;23486;51.956;5.888;2022-12-29T03:32:04;1.08;;;0.20;;
37641;SDS011;23486;51.956;5.888;2022-12-29T03:34:35;2.63;;;0.20;;
37641;SDS011;23486;51.956;5.888;2022-12-29T03:37:07;2.20;;;0.10;;
37641;SDS011;23486;51.956;5.888;2022-12-29T03:39:37;4.03;;;0.35;;
37641;SDS011;23486;51.956;5.888;2022-12-29T03:42:05;3.05;;;0.15;;
37641;SDS011;23486;51.956;5.888;2022-12-29T03:44:36;0.60;;;0.10;;
37641;SDS011;23486;51.956;5.888;2022-12-29T03:47:04;0.95;;;0.15;;
37641;SDS011;23486;51.956;5.888;2022-12-29T03:49:31;3.75;;;0.20;;
37641;SDS011;23486;51.956;5.888;2022-12-29T03:51:56;2.08;;;0.20;;
37641;SDS011;23486;51.956;5.888;2022-12-29T03:54:22;4.03;;;0.17;;
37641;SDS011;23486;51.956;5.888;2022-12-29T03:56:48;2.28;;;0.20;;
37641;SDS011;23486;51.956;5.888;2022-12-29T03:59:16;1.77;;;0.20;;
37641;SDS011;23486;51.956;5.888;2022-12-29T04:01:45;2.50;;;0.20;;
37641;SDS011;23486;51.956;5.888;2022-12-29T04:04:11;1.65;;;0.20;;
37641;SDS011;23486;51.956;5.888;2022-12-29T04:06:36;3.90;;;0.20;;
37641;SDS011;23486;51.956;5.888;2022-12-29T04:09:02;2.13;;;0.20;;
37641;SDS011;23486;51.956;5.888;2022-12-29T04:11:28;2.50;;;0.40;;
37641;SDS011;23486;51.956;5.888;2022-12-29T04:13:53;2.10;;;0.20;;
37641;SDS011;23486;51.956;5.888;2022-12-29T04:16:19;3.13;;;0.20;;
37641;SDS011;23486;51.956;5.888;2022-12-29T04:18:44;2.10;;;0.20;;
37641;SDS011;23486;51.956;5.888;2022-12-29T04:21:10;3.92;;;0.30;;
37641;SDS011;23486;51.956;5.888;2022-12-29T04:23:36;2.00;;;0.20;;
37641;SDS011;23486;51.956;5.888;2022-12-29T04:26:03;0.40;;;0.10;;
37641;SDS011;23486;51.956;5.888;2022-12-29T04:28:35;1.75;;;0.20;;
37641;SDS011;23486;51.956;5.888;2022-12-29T04:31:02;3.40;;;0.20;;
37641;SDS011;23486;51.956;5.888;2022-12-29T04:33:29;1.25;;;0.15;;
37641;SDS011;23486;51.956;5.888;2022-12-29T04:35:55;2.55;;;0.20;;
37641;SDS011;23486;51.956;5.888;2022-12-29T04:38:21;1.30;;;0.20;;
37641;SDS011;23486;51.956;5.888;2022-12-29T04:40:48;1.92;;;0.20;;
37641;SDS011;23486;51.956;5.888;2022-12-29T04:43:15;4.32;;;0.30;;
37641;SDS011;23486;51.956;5.888;2022-12-29T04:45:45;3.28;;;0.38;;
37641;SDS011;23486;51.956;5.888;2022-12-29T04:48:11;2.80;;;0.20;;
37641;SDS011;23486;51.956;5.888;2022-12-29T04:50:38;4.50;;;0.40;;
37641;SDS011;23486;51.956;5.888;2022-12-29T04:53:04;4.05;;;0.47;;
37641;SDS011;23486;51.956;5.888;2022-12-29T04:55:30;3.33;;;0.38;;
37641;SDS011;23486;51.956;5.888;2022-12-29T04:57:56;3.38;;;0.30;;
37641;SDS011;23486;51.956;5.888;2022-12-29T05:00:21;3.10;;;0.30;;
37641;SDS011;23486;51.956;5.888;2022-12-29T05:02:47;2.55;;;0.30;;
37641;SDS011;23486;51.956;5.888;2022-12-29T05:05:13;5.68;;;0.40;;
37641;SDS011;23486;51.956;5.888;2022-12-29T05:07:39;5.40;;;0.40;;
37641;SDS011;23486;51.956;5.888;2022-12-29T05:10:05;2.55;;;0.30;;
37641;SDS011;23486;51.956;5.888;2022-12-29T05:12:32;3.58;;;0.38;;
37641;SDS011;23486;51.956;5.888;2022-12-29T05:14:58;2.10;;;0.40;;
37641;SDS011;23486;51.956;5.888;2022-12-29T05:17:24;3.03;;;0.52;;
37641;SDS011;23486;51.956;5.888;2022-12-29T05:19:50;1.98;;;0.40;;
37641;SDS011;23486;51.956;5.888;2022-12-29T05:22:16;4.38;;;0.65;;
37641;SDS011;23486;51.956;5.888;2022-12-29T05:24:41;4.13;;;0.45;;
37641;SDS011;23486;51.956;5.888;2022-12-29T05:27:07;2.20;;;0.50;;
37641;SDS011;23486;51.956;5.888;2022-12-29T05:29:32;3.40;;;0.70;;
37641;SDS011;23486;51.956;5.888;2022-12-29T05:31:58;3.83;;;0.40;;
37641;SDS011;23486;51.956;5.888;2022-12-29T05:34:27;2.97;;;0.50;;
37641;SDS011;23486;51.956;5.888;2022-12-29T05:36:52;2.92;;;0.50;;
37641;SDS011;23486;51.956;5.888;2022-12-29T05:39:18;7.18;;;0.60;;
37641;SDS011;23486;51.956;5.888;2022-12-29T05:41:44;1.52;;;0.30;;
37641;SDS011;23486;51.956;5.888;2022-12-29T05:44:10;2.60;;;0.43;;
37641;SDS011;23486;51.956;5.888;2022-12-29T05:46:36;1.95;;;0.50;;
37641;SDS011;23486;51.956;5.888;2022-12-29T05:49:02;2.28;;;0.40;;
37641;SDS011;23486;51.956;5.888;2022-12-29T05:51:27;2.80;;;0.40;;
37641;SDS011;23486;51.956;5.888;2022-12-29T05:53:53;2.90;;;0.40;;
37641;SDS011;23486;51.956;5.888;2022-12-29T05:56:19;3.75;;;0.30;;
37641;SDS011;23486;51.956;5.888;2022-12-29T05:58:45;4.00;;;0.40;;
37641;SDS011;23486;51.956;5.888;2022-12-29T06:01:10;5.85;;;0.40;;
37641;SDS011;23486;51.956;5.888;2022-12-29T06:03:36;3.92;;;0.50;;
37641;SDS011;23486;51.956;5.888;2022-12-29T06:06:01;11.35;;;0.80;;
37641;SDS011;23486;51.956;5.888;2022-12-29T06:08:27;4.15;;;0.40;;
37641;SDS011;23486;51.956;5.888;2022-12-29T06:10:53;6.03;;;0.43;;
37641;SDS011;23486;51.956;5.888;2022-12-29T06:13:18;3.65;;;0.43;;
37641;SDS011;23486;51.956;5.888;2022-12-29T06:15:44;3.95;;;0.50;;
37641;SDS011;23486;51.956;5.888;2022-12-29T06:18:09;7.53;;;0.55;;
37641;SDS011;23486;51.956;5.888;2022-12-29T06:20:35;8.20;;;0.40;;
37641;SDS011;23486;51.956;5.888;2022-12-29T06:23:01;2.50;;;0.25;;
37641;SDS011;23486;51.956;5.888;2022-12-29T06:25:27;3.67;;;0.38;;
37641;SDS011;23486;51.956;5.888;2022-12-29T06:27:53;8.15;;;0.50;;
37641;SDS011;23486;51.956;5.888;2022-12-29T06:30:19;3.90;;;0.40;;
37641;SDS011;23486;51.956;5.888;2022-12-29T06:32:44;4.75;;;0.32;;
37641;SDS011;23486;51.956;5.888;2022-12-29T06:35:11;4.28;;;0.40;;
37641;SDS011;23486;51.956;5.888;2022-12-29T06:37:36;6.68;;;0.43;;
37641;SDS011;23486;51.956;5.888;2022-12-29T06:40:02;6.65;;;0.40;;
37641;SDS011;23486;51.956;5.888;2022-12-29T06:42:28;7.88;;;0.40;;
37641;SDS011;23486;51.956;5.888;2022-12-29T06:44:56;4.95;;;0.30;;
37641;SDS011;23486;51.956;5.888;2022-12-29T06:47:23;10.02;;;0.50;;
37641;SDS011;23486;51.956;5.888;2022-12-29T06:49:49;7.68;;;0.40;;
37641;SDS011;23486;51.956;5.888;2022-12-29T06:52:15;8.20;;;0.40;;
37641;SDS011;23486;51.956;5.888;2022-12-29T06:54:40;5.63;;;0.30;;
37641;SDS011;23486;51.956;5.888;2022-12-29T06:57:06;5.85;;;0.40;;
37641;SDS011;23486;51.956;5.888;2022-12-29T06:59:32;4.40;;;0.45;;
37641;SDS011;23486;51.956;5.888;2022-12-29T07:01:57;8.05;;;0.40;;
37641;SDS011;23486;51.956;5.888;2022-12-29T07:04:23;6.60;;;0.90;;
37641;SDS011;23486;51.956;5.888;2022-12-29T07:06:49;7.55;;;0.80;;
37641;SDS011;23486;51.956;5.888;2022-12-29T07:09:14;6.32;;;0.52;;
37641;SDS011;23486;51.956;5.888;2022-12-29T07:11:40;4.18;;;0.30;;
37641;SDS011;23486;51.956;5.888;2022-12-29T07:14:05;3.30;;;0.28;;
37641;SDS011;23486;51.956;5.888;2022-12-29T07:16:31;7.10;;;0.40;;
37641;SDS011;23486;51.956;5.888;2022-12-29T07:18:57;6.30;;;0.40;;
37641;SDS011;23486;51.956;5.888;2022-12-29T07:21:24;3.83;;;0.45;;
37641;SDS011;23486;51.956;5.888;2022-12-29T07:23:50;10.40;;;0.50;;
37641;SDS011;23486;51.956;5.888;2022-12-29T07:26:15;5.90;;;0.30;;
37641;SDS011;23486;51.956;5.888;2022-12-29T07:28:44;5.25;;;0.40;;
37641;SDS011;23486;51.956;5.888;2022-12-29T07:31:13;6.03;;;0.50;;
37641;SDS011;23486;51.956;5.888;2022-12-29T07:33:41;6.85;;;0.30;;
37641;SDS011;23486;51.956;5.888;2022-12-29T07:36:08;3.28;;;0.30;;
37641;SDS011;23486;51.956;5.888;2022-12-29T07:38:34;2.70;;;0.20;;
37641;SDS011;23486;51.956;5.888;2022-12-29T07:40:59;4.47;;;0.28;;
37641;SDS011;23486;51.956;5.888;2022-12-29T07:43:25;3.70;;;0.32;;
37641;SDS011;23486;51.956;5.888;2022-12-29T07:45:51;3.47;;;0.32;;
37641;SDS011;23486;51.956;5.888;2022-12-29T07:48:16;8.88;;;0.65;;
37641;SDS011;23486;51.956;5.888;2022-12-29T07:50:42;4.68;;;0.40;;
37641;SDS011;23486;51.956;5.888;2022-12-29T07:53:07;4.32;;;0.40;;
37641;SDS011;23486;51.956;5.888;2022-12-29T07:55:33;5.43;;;0.32;;
37641;SDS011;23486;51.956;5.888;2022-12-29T07:57:58;5.22;;;0.30;;
37641;SDS011;23486;51.956;5.888;2022-12-29T08:00:24;5.65;;;0.30;;
37641;SDS011;23486;51.956;5.888;2022-12-29T08:02:50;7.07;;;0.40;;
37641;SDS011;23486;51.956;5.888;2022-12-29T08:05:15;5.57;;;0.52;;
37641;SDS011;23486;51.956;5.888;2022-12-29T08:07:44;4.57;;;0.40;;
37641;SDS011;23486;51.956;5.888;2022-12-29T08:10:11;8.32;;;0.40;;
37641;SDS011;23486;51.956;5.888;2022-12-29T08:12:38;8.57;;;1.02;;
37641;SDS011;23486;51.956;5.888;2022-12-29T08:15:04;10.32;;;0.57;;
37641;SDS011;23486;51.956;5.888;2022-12-29T08:17:33;7.40;;;0.57;;
37641;SDS011;23486;51.956;5.888;2022-12-29T08:19:59;7.32;;;0.55;;
37641;SDS011;23486;51.956;5.888;2022-12-29T08:22:24;3.90;;;0.30;;
37641;SDS011;23486;51.956;5.888;2022-12-29T08:24:50;6.28;;;0.40;;
37641;SDS011;23486;51.956;5.888;2022-12-29T08:27:16;5.22;;;0.45;;
37641;SDS011;23486;51.956;5.888;2022-12-29T08:29:42;8.32;;;0.40;;
37641;SDS011;23486;51.956;5.888;2022-12-29T08:32:08;9.43;;;0.50;;
37641;SDS011;23486;51.956;5.888;2022-12-29T08:34:34;9.27;;;0.50;;
37641;SDS011;23486;51.956;5.888;2022-12-29T08:36:59;12.75;;;0.70;;
37641;SDS011;23486;51.956;5.888;2022-12-29T08:39:25;5.85;;;0.50;;
37641;SDS011;23486;51.956;5.888;2022-12-29T08:41:50;6.57;;;0.68;;
37641;SDS011;23486;51.956;5.888;2022-12-29T08:44:16;8.27;;;0.50;;
37641;SDS011;23486;51.956;5.888;2022-12-29T08:46:42;7.85;;;0.63;;
37641;SDS011;23486;51.956;5.888;2022-12-29T08:49:07;7.55;;;0.75;;
37641;SDS011;23486;51.956;5.888;2022-12-29T08:51:33;6.05;;;0.40;;
37641;SDS011;23486;51.956;5.888;2022-12-29T08:53:59;9.38;;;0.52;;
37641;SDS011;23486;51.956;5.888;2022-12-29T08:56:31;9.95;;;0.68;;
37641;SDS011;23486;51.956;5.888;2022-12-29T08:58:57;9.02;;;0.32;;
37641;SDS011;23486;51.956;5.888;2022-12-29T09:01:22;6.18;;;0.50;;
37641;SDS011;23486;51.956;5.888;2022-12-29T09:03:48;8.77;;;1.10;;
37641;SDS011;23486;51.956;5.888;2022-12-29T09:06:14;8.90;;;1.00;;
37641;SDS011;23486;51.956;5.888;2022-12-29T09:08:42;9.55;;;0.68;;
37641;SDS011;23486;51.956;5.888;2022-12-29T09:11:13;7.85;;;0.45;;
37641;SDS011;23486;51.956;5.888;2022-12-29T09:13:41;8.70;;;0.50;;
37641;SDS011;23486;51.956;5.888;2022-12-29T09:16:06;7.68;;;0.60;;
37641;SDS011;23486;51.956;5.888;2022-12-29T09:18:32;10.55;;;0.70;;
37641;SDS011;23486;51.956;5.888;2022-12-29T09:20:58;10.77;;;0.50;;
37641;SDS011;23486;51.956;5.888;2022-12-29T09:23:25;8.38;;;0.52;;
37641;SDS011;23486;51.956;5.888;2022-12-29T09:25:51;6.53;;;0.40;;
37641;SDS011;23486;51.956;5.888;2022-12-29T09:28:17;10.57;;;0.70;;
37641;SDS011;23486;51.956;5.888;2022-12-29T09:30:43;11.77;;;0.70;;
37641;SDS011;23486;51.956;5.888;2022-12-29T09:33:08;7.72;;;0.63;;
37641;SDS011;23486;51.956;5.888;2022-12-29T09:35:34;7.03;;;0.82;;
37641;SDS011;23486;51.956;5.888;2022-12-29T09:38:00;6.25;;;0.30;;
37641;SDS011;23486;51.956;5.888;2022-12-29T09:40:29;8.35;;;0.60;;
37641;SDS011;23486;51.956;5.888;2022-12-29T09:43:10;6.88;;;0.50;;
37641;SDS011;23486;51.956;5.888;2022-12-29T09:48:44;8.65;;;0.57;;
37641;SDS011;23486;51.956;5.888;2022-12-29T09:51:15;5.95;;;0.88;;
37641;SDS011;23486;51.956;5.888;2022-12-29T09:53:56;6.93;;;0.40;;
37641;SDS011;23486;51.956;5.888;2022-12-29T09:56:35;11.10;;;1.00;;
37641;SDS011;23486;51.956;5.888;2022-12-29T09:59:11;10.25;;;1.05;;
37641;SDS011;23486;51.956;5.888;2022-12-29T10:01:46;11.27;;;0.80;;
37641;SDS011;23486;51.956;5.888;2022-12-29T10:04:20;7.50;;;0.85;;
37641;SDS011;23486;51.956;5.888;2022-12-29T10:07:23;8.88;;;0.82;;
37641;SDS011;23486;51.956;5.888;2022-12-29T10:09:50;8.27;;;0.50;;
37641;SDS011;23486;51.956;5.888;2022-12-29T10:23:51;8.60;;;0.50;;
37641;SDS011;23486;51.956;5.888;2022-12-29T10:26:21;10.63;;;1.02;;
37641;SDS011;23486;51.956;5.888;2022-12-29T10:28:56;5.38;;;0.63;;
37641;SDS011;23486;51.956;5.888;2022-12-29T10:31:41;7.07;;;0.60;;
37641;SDS011;23486;51.956;5.888;2022-12-29T10:34:21;7.10;;;0.90;;
37641;SDS011;23486;51.956;5.888;2022-12-29T10:36:52;6.40;;;0.50;;
37641;SDS011;23486;51.956;5.888;2022-12-29T10:39:27;9.60;;;0.40;;
37641;SDS011;23486;51.956;5.888;2022-12-29T10:42:11;6.97;;;1.50;;
37641;SDS011;23486;51.956;5.888;2022-12-29T10:44:45;6.93;;;0.80;;
37641;SDS011;23486;51.956;5.888;2022-12-29T10:47:15;6.82;;;0.63;;
37641;SDS011;23486;51.956;5.888;2022-12-29T10:49:45;6.40;;;0.60;;
37641;SDS011;23486;51.956;5.888;2022-12-29T10:52:13;5.78;;;0.65;;
37641;SDS011;23486;51.956;5.888;2022-12-29T10:54:44;12.43;;;0.82;;
37641;SDS011;23486;51.956;5.888;2022-12-29T11:08:25;12.45;;;1.00;;
37641;SDS011;23486;51.956;5.888;2022-12-29T11:10:57;6.45;;;1.40;;
37641;SDS011;23486;51.956;5.888;2022-12-29T11:13:38;5.95;;;0.63;;
37641;SDS011;23486;51.956;5.888;2022-12-29T11:16:13;7.18;;;0.60;;
37641;SDS011;23486;51.956;5.888;2022-12-29T11:18:39;7.85;;;0.90;;
37641;SDS011;23486;51.956;5.888;2022-12-29T11:23:56;10.40;;;1.15;;
37641;SDS011;23486;51.956;5.888;2022-12-29T11:26:27;16.75;;;2.92;;
37641;SDS011;23486;51.956;5.888;2022-12-29T11:32:05;9.70;;;1.65;;
37641;SDS011;23486;51.956;5.888;2022-12-29T11:34:37;9.27;;;1.13;;
37641;SDS011;23486;51.956;5.888;2022-12-29T11:37:18;11.38;;;1.40;;
37641;SDS011;23486;51.956;5.888;2022-12-29T11:40:03;15.00;;;2.38;;
37641;SDS011;23486;51.956;5.888;2022-12-29T11:42:40;9.52;;;1.52;;
37641;SDS011;23486;51.956;5.888;2022-12-29T11:45:16;13.30;;;1.98;;
37641;SDS011;23486;51.956;5.888;2022-12-29T11:48:21;12.05;;;1.65;;
37641;SDS011;23486;51.956;5.888;2022-12-29T11:50:42;10.57;;;1.85;;
37641;SDS011;23486;51.956;5.888;2022-12-29T11:53:23;11.15;;;1.48;;
37641;SDS011;23486;51.956;5.888;2022-12-29T11:55:55;11.80;;;2.10;;
37641;SDS011;23486;51.956;5.888;2022-12-29T11:58:34;11.55;;;1.50;;
37641;SDS011;23486;51.956;5.888;2022-12-29T12:06:29;12.32;;;1.85;;
37641;SDS011;23486;51.956;5.888;2022-12-29T12:09:01;14.95;;;2.25;;
37641;SDS011;23486;51.956;5.888;2022-12-29T12:11:32;14.38;;;2.47;;
37641;SDS011;23486;51.956;5.888;2022-12-29T12:14:11;17.70;;;2.17;;
37641;SDS011;23486;51.956;5.888;2022-12-29T12:19:37;13.00;;;2.15;;
37641;SDS011;23486;51.956;5.888;2022-12-29T12:22:13;11.68;;;1.50;;
37641;SDS011;23486;51.956;5.888;2022-12-29T12:24:51;10.20;;;2.08;;
37641;SDS011;23486;51.956;5.888;2022-12-29T12:30:09;13.70;;;2.35;;
37641;SDS011;23486;51.956;5.888;2022-12-29T12:32:50;13.40;;;1.67;;
37641;SDS011;23486;51.956;5.888;2022-12-29T12:35:30;12.68;;;1.98;;
37641;SDS011;23486;51.956;5.888;2022-12-29T12:43:47;12.63;;;2.00;;
37641;SDS011;23486;51.956;5.888;2022-12-29T12:52:29;10.25;;;2.17;;
37641;SDS011;23486;51.956;5.888;2022-12-29T12:58:09;10.77;;;1.38;;
37641;SDS011;23486;51.956;5.888;2022-12-29T13:00:48;16.80;;;2.13;;
37641;SDS011;23486;51.956;5.888;2022-12-29T13:06:50;14.93;;;1.75;;
37641;SDS011;23486;51.956;5.888;2022-12-29T13:14:58;13.07;;;1.50;;
37641;SDS011;23486;51.956;5.888;2022-12-29T13:17:50;11.43;;;1.70;;
37641;SDS011;23486;51.956;5.888;2022-12-29T13:25:51;11.43;;;1.63;;
37641;SDS011;23486;51.956;5.888;2022-12-29T13:28:44;20.58;;;2.22;;
37641;SDS011;23486;51.956;5.888;2022-12-29T13:37:18;11.30;;;1.30;;
37641;SDS011;23486;51.956;5.888;2022-12-29T13:39:57;12.48;;;1.30;;
37641;SDS011;23486;51.956;5.888;2022-12-29T13:42:27;10.90;;;1.40;;
37641;SDS011;23486;51.956;5.888;2022-12-29T13:45:00;10.95;;;1.75;;
37641;SDS011;23486;51.956;5.888;2022-12-29T13:47:33;11.77;;;1.08;;
37641;SDS011;23486;51.956;5.888;2022-12-29T13:50:19;6.60;;;1.20;;
37641;SDS011;23486;51.956;5.888;2022-12-29T13:52:55;10.45;;;1.55;;
37641;SDS011;23486;51.956;5.888;2022-12-29T13:55:35;10.80;;;0.82;;
37641;SDS011;23486;51.956;5.888;2022-12-29T13:58:13;15.32;;;1.75;;
37641;SDS011;23486;51.956;5.888;2022-12-29T14:01:03;10.05;;;1.70;;
37641;SDS011;23486;51.956;5.888;2022-12-29T14:03:52;11.00;;;1.23;;
37641;SDS011;23486;51.956;5.888;2022-12-29T14:09:02;9.43;;;0.90;;
37641;SDS011;23486;51.956;5.888;2022-12-29T14:11:48;6.68;;;0.90;;
37641;SDS011;23486;51.956;5.888;2022-12-29T14:14:16;11.32;;;1.13;;
37641;SDS011;23486;51.956;5.888;2022-12-29T14:16:46;13.10;;;1.50;;
37641;SDS011;23486;51.956;5.888;2022-12-29T14:21:40;9.35;;;0.93;;
37641;SDS011;23486;51.956;5.888;2022-12-29T14:26:59;7.45;;;0.50;;
37641;SDS011;23486;51.956;5.888;2022-12-29T14:29:46;7.97;;;0.50;;
37641;SDS011;23486;51.956;5.888;2022-12-29T14:33:00;6.22;;;0.60;;
37641;SDS011;23486;51.956;5.888;2022-12-29T14:35:32;5.57;;;0.60;;
37641;SDS011;23486;51.956;5.888;2022-12-29T14:38:15;3.85;;;0.50;;
37641;SDS011;23486;51.956;5.888;2022-12-29T14:40:43;3.47;;;0.50;;
37641;SDS011;23486;51.956;5.888;2022-12-29T14:43:20;4.53;;;0.57;;
37641;SDS011;23486;51.956;5.888;2022-12-29T14:45:55;6.60;;;0.50;;
37641;SDS011;23486;51.956;5.888;2022-12-29T14:50:55;4.68;;;0.50;;
37641;SDS011;23486;51.956;5.888;2022-12-29T15:01:20;3.35;;;1.45;;
37641;SDS011;23486;51.956;5.888;2022-12-29T15:03:51;9.38;;;0.82;;
37641;SDS011;23486;51.956;5.888;2022-12-29T15:06:21;6.15;;;0.70;;
37641;SDS011;23486;51.956;5.888;2022-12-29T15:09:05;6.55;;;1.35;;
37641;SDS011;23486;51.956;5.888;2022-12-29T15:14:26;5.88;;;0.82;;
37641;SDS011;23486;51.956;5.888;2022-12-29T15:16:55;6.65;;;0.70;;
37641;SDS011;23486;51.956;5.888;2022-12-29T15:19:24;5.57;;;0.50;;
37641;SDS011;23486;51.956;5.888;2022-12-29T15:21:53;7.10;;;0.50;;
37641;SDS011;23486;51.956;5.888;2022-12-29T15:24:20;8.18;;;0.70;;
37641;SDS011;23486;51.956;5.888;2022-12-29T15:26:46;10.07;;;0.98;;
37641;SDS011;23486;51.956;5.888;2022-12-29T15:34:42;12.02;;;1.10;;
37641;SDS011;23486;51.956;5.888;2022-12-29T15:37:08;12.27;;;1.40;;
37641;SDS011;23486;51.956;5.888;2022-12-29T15:39:34;8.20;;;1.00;;
37641;SDS011;23486;51.956;5.888;2022-12-29T15:42:06;7.68;;;0.90;;
37641;SDS011;23486;51.956;5.888;2022-12-29T15:44:54;5.85;;;1.08;;
37641;SDS011;23486;51.956;5.888;2022-12-29T15:47:21;11.75;;;1.10;;
37641;SDS011;23486;51.956;5.888;2022-12-29T15:49:50;7.43;;;0.52;;
37641;SDS011;23486;51.956;5.888;2022-12-29T15:52:21;7.00;;;1.48;;
37641;SDS011;23486;51.956;5.888;2022-12-29T15:54:51;9.80;;;0.70;;
37641;SDS011;23486;51.956;5.888;2022-12-29T15:57:26;9.52;;;1.00;;
37641;SDS011;23486;51.956;5.888;2022-12-29T16:00:00;5.68;;;0.80;;
37641;SDS011;23486;51.956;5.888;2022-12-29T16:02:26;5.03;;;0.98;;
37641;SDS011;23486;51.956;5.888;2022-12-29T16:04:53;7.10;;;0.80;;
37641;SDS011;23486;51.956;5.888;2022-12-29T16:07:29;7.40;;;0.82;;
37641;SDS011;23486;51.956;5.888;2022-12-29T16:09:57;9.77;;;0.80;;
37641;SDS011;23486;51.956;5.888;2022-12-29T16:12:34;5.25;;;0.57;;
37641;SDS011;23486;51.956;5.888;2022-12-29T16:15:02;4.43;;;0.82;;
37641;SDS011;23486;51.956;5.888;2022-12-29T16:17:41;7.53;;;1.20;;
37641;SDS011;23486;51.956;5.888;2022-12-29T16:20:16;9.27;;;1.00;;
37641;SDS011;23486;51.956;5.888;2022-12-29T16:22:48;5.90;;;1.05;;
37641;SDS011;23486;51.956;5.888;2022-12-29T16:25:24;9.68;;;0.95;;
37641;SDS011;23486;51.956;5.888;2022-12-29T16:27:56;9.50;;;1.45;;
37641;SDS011;23486;51.956;5.888;2022-12-29T16:30:27;8.93;;;1.38;;
37641;SDS011;23486;51.956;5.888;2022-12-29T16:32:55;8.15;;;0.98;;
37641;SDS011;23486;51.956;5.888;2022-12-29T16:35:24;7.07;;;1.05;;
37641;SDS011;23486;51.956;5.888;2022-12-29T16:38:06;5.97;;;0.70;;
37641;SDS011;23486;51.956;5.888;2022-12-29T16:40:56;8.45;;;1.20;;
37641;SDS011;23486;51.956;5.888;2022-12-29T16:43:34;7.90;;;0.70;;
37641;SDS011;23486;51.956;5.888;2022-12-29T16:46:17;7.72;;;1.25;;
37641;SDS011;23486;51.956;5.888;2022-12-29T16:48:53;4.13;;;0.88;;
37641;SDS011;23486;51.956;5.888;2022-12-29T16:51:28;8.45;;;0.75;;
37641;SDS011;23486;51.956;5.888;2022-12-29T16:53:59;7.20;;;0.75;;
37641;SDS011;23486;51.956;5.888;2022-12-29T16:56:26;8.63;;;0.82;;
37641;SDS011;23486;51.956;5.888;2022-12-29T16:59:01;6.18;;;0.60;;
37641;SDS011;23486;51.956;5.888;2022-12-29T17:01:27;7.43;;;0.70;;
37641;SDS011;23486;51.956;5.888;2022-12-29T17:04:00;5.75;;;0.68;;
37641;SDS011;23486;51.956;5.888;2022-12-29T17:06:31;6.90;;;0.50;;
37641;SDS011;23486;51.956;5.888;2022-12-29T17:08:57;6.45;;;0.90;;
37641;SDS011;23486;51.956;5.888;2022-12-29T17:11:27;5.82;;;0.70;;
37641;SDS011;23486;51.956;5.888;2022-12-29T17:17:15;7.72;;;0.60;;
37641;SDS011;23486;51.956;5.888;2022-12-29T17:19:51;6.25;;;0.65;;
37641;SDS011;23486;51.956;5.888;2022-12-29T17:22:19;5.38;;;0.40;;
37641;SDS011;23486;51.956;5.888;2022-12-29T17:24:49;7.13;;;0.65;;
37641;SDS011;23486;51.956;5.888;2022-12-29T17:27:21;9.65;;;1.70;;
37641;SDS011;23486;51.956;5.888;2022-12-29T17:29:56;6.68;;;1.23;;
37641;SDS011;23486;51.956;5.888;2022-12-29T17:32:24;4.57;;;0.60;;
37641;SDS011;23486;51.956;5.888;2022-12-29T17:34:50;5.53;;;0.50;;
37641;SDS011;23486;51.956;5.888;2022-12-29T17:39:50;6.07;;;0.73;;